« 芝山1 成田国際空港 2017/10/26 thu | トップページ | 演習1 小松飛行場 2017/11/13 mon »

2017/11/12

芝山2 成田国際空港 2017/10/26 thu

その1からつづき

20171026_rjaa_140b6122

CSE524 RJAA-ZSPD B-6122 A330-243

20171026_rjaa_141hl7723

ABL111 RJAA-RKPK HL7723 A321-231

20171026_rjaa_142blnq

CRK608 VHHH-RJAA B-LNQ A330-343

20171026_rjaa_143ja892a

ANA210 EDDL-RJAA JA892A B787-9

20171026_rjaa_144hl8063

JJA1105 RJAA-RKSI HL8063 B737-8AS

20171026_rjaa_145hl8070

TWB212 RJAA-RKTN HL8070 B737-8AS

20171026_rjaa_146vqbet

SBI565 UHWW-RJAA VQ-BET A320-214

20171026_rjaa_147b1923

CSN8384 RJAA-ZHCC B-1923 B737-86N

20171026_rjaa_148ja608j

JAL785 PMNL-RJAA JA608J B767-346ER

20171026_rjaa_149n220ua

UAL803 KIAD-RJAA N220UA B777-222ER

20171026_rjaa_150hl7587

KAL704 RJAA-RKSI HL7587 A330-323

20171026_rjaa_151ja610a

ANA834 VVTS-RJAA JA610A B767-381ER

RJAA 260600Z 06008KT 9999 FEW030 18/09 Q1020 BECMG 05008KT RMK 1CU030 A3014

20171026_rjaa_152n705dn

DAL295 KATL-RJAA N705DN B777-232LR

20171026_rjaa_153ja17jj

JJP209 RJAA-RJBB JA17JJ A320-232

20171026_rjaa_154n884fd

FDX169 RJAA-VHHH N884FD B777-FS2

20171026_rjaa_155vna336

HVN302 VVTS-RJAA VN-A336 A321-231

20171026_rjaa_156n180dn

DAL579 PHNL-RJAA N180DN B767-332ER

20171026_rjaa_157bmba

AMU862 VMMC-RJAA B-MBA A321-231

20171026_rjaa_158n77296

UAL78 RKSI-RJAA N77296 B737-824

20171026_rjaa_159ja835a

ANA806 VTBS-RJAA JA835A B787-8

20171026_rjaa_160ja734j

JAL3 KJFK-RJAA JA734J B777-346ER

20171026_rjaa_161ja624a

ANA948 ZUUU-RJAA JA624A B767-381ER

20171026_rjaa_162ja212a

ANA926 ZYTX-RJAA JA212A A320-271N

20171026_rjaa_163ja04jj

JJP602 RJFO-RJAA JA04JJ A320-231

20171026_rjaa_164ja93cp

JA93CP

20171026_rjaa_165n884fd

FDX169 RJAA-VHHH N884FD B777-FS2

20171026_rjaa_166ja615a

ANA812 VHHH-RJAA JA615A B767-381ER

20171026_rjaa_167n37298

UAL196 PGUM-RJAA N37298 B737-824

20171026_rjaa_168hl8064

JJA1153 RJAA-RKPK HL8064 B737-8AS

20171026_rjaa_169ja815a

ANA816 WMKK-RJAA JA815A B787-8

20171026_rjaa_170ja621a

ANA813 RJAA-VYYY JA621A B767-381ER

20171026_rjaa_171b16337

EVA197 RJAA-RCTP B-16337 A330-302

20171026_rjaa_172hl7553

KAL002 PHNL-RJAA HL7553 A330-323

20171026_rjaa_173xaamx

AMX57 RJAA-MMMX XA-AMX B787-8

20171026_rjaa_174rpc9914

PAL427 RJAA-RPLL RP-C9914 A321-231

20171026_rjaa_175b8577

CCA925 ZBAA-RJAA B-8577 A330-343

20171026_rjaa_176b5632

CXA810 RJAA-ZSFZ B-5632 B737-85C

20171026_rjaa_177ja03gr

SJO1052 ZYHB-RJAA JA03GR B737-86N

20171026_rjaa_178hl8098

TWB204 RJAA-RKSI HL8098 B737-8KN

RJAA 260600Z 06008KT 9999 FEW030 18/09 Q1020 BECMG 05008KT RMK 1CU030 A3014

20171026_rjaa_179n2140u_2

UAL837 KSFO-RJAA N2140U B777-322ER

その3へつづく・・・

|

« 芝山1 成田国際空港 2017/10/26 thu | トップページ | 演習1 小松飛行場 2017/11/13 mon »

成田国際空港」カテゴリの記事

コメント

コメントを書く



(ウェブ上には掲載しません)


コメントは記事投稿者が公開するまで表示されません。



トラックバック


この記事へのトラックバック一覧です: 芝山2 成田国際空港 2017/10/26 thu:

« 芝山1 成田国際空港 2017/10/26 thu | トップページ | 演習1 小松飛行場 2017/11/13 mon »